createdAt,value
2018-12-23T00:00:11.943Z,92.30
2018-12-23T00:02:40.271Z,92.30
2018-12-23T00:05:11.620Z,92.20
2018-12-23T00:07:38.781Z,91.90
2018-12-23T00:10:07.450Z,91.90
2018-12-23T00:12:35.750Z,91.80
2018-12-23T00:15:04.965Z,91.60
2018-12-23T00:17:33.438Z,92.20
2018-12-23T00:20:01.554Z,92.60
2018-12-23T00:22:29.671Z,92.60
2018-12-23T00:24:57.911Z,92.70
2018-12-23T00:27:26.200Z,92.70
2018-12-23T00:29:54.696Z,92.50
2018-12-23T00:32:23.016Z,92.70
2018-12-23T00:34:51.469Z,93.10
2018-12-23T00:37:19.686Z,93.40
2018-12-23T00:39:48.048Z,93.40
2018-12-23T00:42:17.339Z,93.40
2018-12-23T00:44:45.652Z,93.20
2018-12-23T00:47:13.890Z,93.00
2018-12-23T00:49:44.277Z,92.70
2018-12-23T00:52:12.614Z,92.50
2018-12-23T00:54:40.822Z,92.40
2018-12-23T00:57:09.399Z,92.20
2018-12-23T00:59:38.298Z,92.00
2018-12-23T01:02:06.435Z,91.90
2018-12-23T01:04:34.563Z,92.10
2018-12-23T01:07:02.761Z,92.20
2018-12-23T01:09:31.107Z,92.20
2018-12-23T01:11:59.371Z,92.20
2018-12-23T01:14:28.002Z,92.50
2018-12-23T01:16:56.353Z,92.50
2018-12-23T01:19:24.575Z,92.60
2018-12-23T01:21:53.374Z,92.60
2018-12-23T01:24:21.852Z,92.70
2018-12-23T01:26:50.044Z,93.10
2018-12-23T01:29:18.221Z,93.10
2018-12-23T01:31:46.812Z,93.10
2018-12-23T01:34:15.351Z,93.10
2018-12-23T01:36:43.857Z,92.80
2018-12-23T01:39:11.985Z,93.00
2018-12-23T01:41:40.650Z,92.70
2018-12-23T01:44:08.776Z,92.80
2018-12-23T01:46:37.274Z,92.60
2018-12-23T01:49:05.646Z,93.00
2018-12-23T01:51:33.939Z,93.20
2018-12-23T01:54:02.552Z,93.00
2018-12-23T01:56:31.098Z,93.10
2018-12-23T01:58:59.298Z,93.60
2018-12-23T02:01:27.627Z,93.90
2018-12-23T02:03:55.818Z,93.60
2018-12-23T02:06:24.055Z,93.30
2018-12-23T02:08:52.156Z,93.40
2018-12-23T02:11:20.458Z,93.40
2018-12-23T02:13:48.720Z,93.10
2018-12-23T02:16:16.975Z,93.10
2018-12-23T02:18:46.942Z,93.00
2018-12-23T02:21:15.461Z,93.20
2018-12-23T02:23:43.672Z,93.10
2018-12-23T02:26:11.903Z,93.80
2018-12-23T02:28:40.047Z,93.90
2018-12-23T02:31:08.347Z,94.10
2018-12-23T02:33:36.767Z,94.40
2018-12-23T02:36:05.395Z,94.50
2018-12-23T02:38:33.724Z,94.40
2018-12-23T02:41:02.025Z,94.50
2018-12-23T02:43:30.699Z,94.60
2018-12-23T02:45:59.061Z,94.70
2018-12-23T02:48:27.272Z,94.80
2018-12-23T02:50:55.628Z,94.90
2018-12-23T02:53:24.988Z,95.00
2018-12-23T02:55:53.182Z,95.10
2018-12-23T02:58:21.650Z,95.20
2018-12-23T03:00:50.239Z,95.00
2018-12-23T03:03:18.582Z,94.70
2018-12-23T03:05:46.844Z,94.40
2018-12-23T03:08:15.346Z,94.50
2018-12-23T03:10:43.916Z,94.60
2018-12-23T03:13:12.125Z,94.80
2018-12-23T03:15:41.542Z,94.90
2018-12-23T03:18:09.734Z,94.90
2018-12-23T03:20:37.828Z,94.90
2018-12-23T03:23:06.086Z,95.10
2018-12-23T03:25:34.423Z,95.60
2018-12-23T03:28:02.644Z,95.70
2018-12-23T03:30:31.037Z,95.80
2018-12-23T03:32:59.207Z,96.20
2018-12-23T03:35:27.655Z,96.50
2018-12-23T03:37:55.920Z,96.60
2018-12-23T03:40:24.321Z,96.60
2018-12-23T03:42:52.967Z,96.60
2018-12-23T03:45:21.319Z,96.60
2018-12-23T03:47:49.447Z,96.60
2018-12-23T03:50:17.781Z,96.60
2018-12-23T03:52:45.958Z,96.60
2018-12-23T03:55:14.184Z,96.60
2018-12-23T03:57:42.661Z,96.60
2018-12-23T04:00:11.003Z,96.60
2018-12-23T04:02:39.262Z,96.60
2018-12-23T04:05:07.515Z,96.60
2018-12-23T04:07:35.842Z,96.60
2018-12-23T04:10:04.650Z,96.60
2018-12-23T04:12:33.625Z,96.60
2018-12-23T04:15:02.010Z,96.60
2018-12-23T04:17:30.336Z,96.60
2018-12-23T04:19:58.763Z,96.60
2018-12-23T04:22:27.130Z,96.60
2018-12-23T04:24:55.567Z,96.60
2018-12-23T04:27:23.701Z,96.60
2018-12-23T04:29:51.910Z,96.60
2018-12-23T04:32:20.237Z,96.60
2018-12-23T04:34:48.965Z,96.60
2018-12-23T04:37:17.287Z,96.60
2018-12-23T04:39:45.888Z,96.60
2018-12-23T04:42:14.187Z,96.60
2018-12-23T04:44:42.425Z,96.60
2018-12-23T04:47:10.905Z,96.60
2018-12-23T04:49:39.134Z,96.60
2018-12-23T04:52:07.352Z,96.60
2018-12-23T04:54:35.874Z,96.60
2018-12-23T04:57:04.354Z,96.60
2018-12-23T04:59:33.139Z,96.60
2018-12-23T05:02:01.485Z,96.60
2018-12-23T05:04:30.348Z,96.60
2018-12-23T05:06:58.847Z,96.60
2018-12-23T05:09:27.842Z,96.60
2018-12-23T05:11:56.358Z,96.60
2018-12-23T05:14:24.689Z,96.60
2018-12-23T05:16:53.087Z,96.60
2018-12-23T05:19:21.336Z,96.60
2018-12-23T05:21:49.625Z,96.60
2018-12-23T05:24:18.411Z,96.60
2018-12-23T05:26:46.582Z,96.60
2018-12-23T05:29:15.058Z,96.60
2018-12-23T05:31:43.155Z,96.60
2018-12-23T05:34:12.030Z,96.60
2018-12-23T05:36:40.584Z,96.60
2018-12-23T05:39:10.318Z,96.60
2018-12-23T05:41:38.905Z,96.60
2018-12-23T05:44:07.134Z,96.60
2018-12-23T05:46:35.421Z,96.60
2018-12-23T05:49:03.626Z,96.60
2018-12-23T05:51:31.941Z,96.60
2018-12-23T05:54:00.239Z,96.60
2018-12-23T05:56:29.139Z,96.60
2018-12-23T05:58:57.405Z,96.60
2018-12-23T06:01:25.854Z,96.60
2018-12-23T06:03:53.963Z,96.60
2018-12-23T06:06:22.575Z,96.60
2018-12-23T06:08:51.284Z,96.60
2018-12-23T06:11:19.624Z,96.60
2018-12-23T06:13:47.810Z,96.60
2018-12-23T06:16:16.060Z,96.60
2018-12-23T06:18:44.271Z,96.60
2018-12-23T06:21:12.381Z,96.60
2018-12-23T06:23:40.626Z,96.60
2018-12-23T06:26:08.730Z,96.60
2018-12-23T06:28:37.097Z,96.60
2018-12-23T06:31:05.418Z,96.60
2018-12-23T06:33:33.619Z,96.60
2018-12-23T06:36:01.921Z,96.60
2018-12-23T06:38:30.066Z,96.60
2018-12-23T06:40:58.605Z,96.60
2018-12-23T06:43:26.725Z,96.60
2018-12-23T06:45:54.981Z,96.60
2018-12-23T06:48:23.428Z,96.60
2018-12-23T06:50:51.904Z,96.60
2018-12-23T06:53:20.041Z,96.60
2018-12-23T06:55:48.445Z,96.60
2018-12-23T06:58:16.728Z,96.60
2018-12-23T07:00:45.117Z,96.60
2018-12-23T07:03:13.230Z,96.60
2018-12-23T07:05:41.672Z,96.60
2018-12-23T07:08:10.283Z,96.60
2018-12-23T07:10:38.518Z,96.60
2018-12-23T07:13:06.674Z,96.60
2018-12-23T07:15:34.981Z,96.60
2018-12-23T07:18:03.256Z,96.50
2018-12-23T07:20:31.557Z,96.60
2018-12-23T07:22:59.826Z,96.50
2018-12-23T07:25:28.019Z,96.30
2018-12-23T07:27:57.353Z,95.90
2018-12-23T07:30:25.450Z,96.00
2018-12-23T07:32:54.310Z,96.20
2018-12-23T07:35:23.837Z,96.40
2018-12-23T07:37:53.073Z,96.40
2018-12-23T07:40:21.952Z,96.40
2018-12-23T07:42:50.365Z,96.30
2018-12-23T07:45:18.637Z,96.10
2018-12-23T07:47:46.758Z,96.20
2018-12-23T07:50:15.110Z,96.00
2018-12-23T07:52:43.218Z,96.00
2018-12-23T07:55:11.371Z,96.60
2018-12-23T07:57:40.346Z,96.60
2018-12-23T08:00:08.736Z,96.60
2018-12-23T08:02:37.140Z,96.60
2018-12-23T08:05:05.490Z,96.60
2018-12-23T08:07:36.230Z,96.60
2018-12-23T08:10:04.649Z,96.60
2018-12-23T08:12:33.230Z,96.60
2018-12-23T08:15:44.685Z,96.60
2018-12-23T08:18:25.643Z,96.60
2018-12-23T08:21:06.808Z,96.30
2018-12-23T08:23:47.547Z,96.10
2018-12-23T08:26:28.462Z,95.90
2018-12-23T08:29:09.414Z,95.50
2018-12-23T08:31:50.831Z,95.50
2018-12-23T08:36:49.470Z,95.30
2018-12-23T08:39:18.974Z,95.20
2018-12-23T08:41:48.571Z,95.30
2018-12-23T08:44:18.251Z,95.00
2018-12-23T08:46:48.404Z,94.70
2018-12-23T08:49:17.942Z,94.70
2018-12-23T08:51:47.332Z,94.50
2018-12-23T08:54:16.827Z,94.40
2018-12-23T08:56:46.298Z,94.20
2018-12-23T08:59:15.811Z,93.80
2018-12-23T09:01:45.589Z,93.80
2018-12-23T09:04:14.907Z,93.70
2018-12-23T09:06:44.189Z,93.40
2018-12-23T09:09:14.649Z,93.60
2018-12-23T09:11:44.674Z,93.70
2018-12-23T09:14:17.250Z,93.50
2018-12-23T09:16:47.138Z,93.40
2018-12-23T09:19:16.774Z,93.40
2018-12-23T09:21:46.622Z,93.50
2018-12-23T09:24:16.579Z,93.30
2018-12-23T09:26:46.363Z,93.30
2018-12-23T09:29:15.943Z,92.90
2018-12-23T09:31:45.599Z,92.90
2018-12-23T09:34:15.186Z,92.80
2018-12-23T09:36:48.098Z,92.80
2018-12-23T09:39:17.713Z,92.50
2018-12-23T09:41:47.303Z,92.20
2018-12-23T09:44:16.776Z,92.30
2018-12-23T09:46:46.222Z,92.10
2018-12-23T09:49:15.918Z,91.90
2018-12-23T09:51:46.677Z,91.60
2018-12-23T09:54:16.520Z,91.50
2018-12-23T09:56:46.043Z,91.20
2018-12-23T09:59:15.991Z,91.30
2018-12-23T10:01:45.456Z,91.40
2018-12-23T10:04:14.915Z,90.90
2018-12-23T10:06:44.463Z,91.10
2018-12-23T10:09:14.932Z,90.60
2018-12-23T10:11:44.387Z,90.60
2018-12-23T10:14:15.664Z,90.50
2018-12-23T10:16:47.124Z,90.00
2018-12-23T10:19:16.922Z,89.90
2018-12-23T10:21:46.838Z,90.20
2018-12-23T10:24:16.633Z,90.20
2018-12-23T10:26:46.767Z,90.20
2018-12-23T10:29:16.292Z,90.40
2018-12-23T10:31:46.097Z,90.40
2018-12-23T10:34:15.800Z,90.30
2018-12-23T10:36:45.404Z,90.00
2018-12-23T10:39:15.004Z,89.80
2018-12-23T10:41:44.799Z,90.00
2018-12-23T10:44:14.503Z,89.90
2018-12-23T10:46:44.204Z,90.10
2018-12-23T10:49:14.847Z,90.20
2018-12-23T10:51:44.326Z,90.10
2018-12-23T10:54:13.694Z,90.00
2018-12-23T10:56:42.966Z,90.80
2018-12-23T10:59:12.484Z,91.10
2018-12-23T11:01:41.861Z,91.00
2018-12-23T11:04:11.352Z,91.10
2018-12-23T11:06:40.775Z,91.10
2018-12-23T11:09:10.627Z,90.50
2018-12-23T11:11:40.023Z,90.30
2018-12-23T11:14:09.542Z,89.90
2018-12-23T11:16:39.106Z,89.70
2018-12-23T11:19:08.424Z,89.90
2018-12-23T11:21:38.319Z,89.90
2018-12-23T11:24:07.645Z,89.60
2018-12-23T11:26:37.515Z,89.30
2018-12-23T11:29:07.072Z,89.60
2018-12-23T11:31:36.761Z,89.80
2018-12-23T11:34:06.411Z,89.80
2018-12-23T11:36:35.933Z,89.80
2018-12-23T11:39:07.948Z,89.40
2018-12-23T11:41:37.425Z,89.90
2018-12-23T11:44:07.475Z,89.90
2018-12-23T11:46:36.871Z,89.90
2018-12-23T11:49:06.659Z,89.60
2018-12-23T11:51:36.032Z,89.30
2018-12-23T11:54:05.945Z,89.70
2018-12-23T11:56:36.047Z,89.70
2018-12-23T11:59:05.642Z,89.70
2018-12-23T12:01:35.169Z,90.10
2018-12-23T12:04:04.798Z,90.60
2018-12-23T12:06:34.738Z,91.40
2018-12-23T12:09:07.419Z,92.00
2018-12-23T12:11:37.060Z,92.10
2018-12-23T12:14:06.563Z,92.20
2018-12-23T12:16:35.825Z,92.60
2018-12-23T12:19:05.462Z,92.50
2018-12-23T12:21:34.959Z,92.50
2018-12-23T12:24:04.569Z,93.50
2018-12-23T12:26:34.147Z,94.60
2018-12-23T12:29:04.014Z,94.60
2018-12-23T12:31:33.479Z,95.00
2018-12-23T12:34:03.037Z,96.00
2018-12-23T12:36:32.692Z,96.40
2018-12-23T12:39:02.394Z,96.60
2018-12-23T12:41:31.848Z,96.60
2018-12-23T12:44:01.658Z,96.60
2018-12-23T12:46:32.290Z,96.60
2018-12-23T12:49:01.651Z,96.60
2018-12-23T12:51:31.358Z,96.60
2018-12-23T12:54:00.695Z,96.60
2018-12-23T12:56:30.446Z,96.60
2018-12-23T12:58:59.980Z,96.60
2018-12-23T13:01:29.690Z,96.60
2018-12-23T13:03:59.389Z,96.60
2018-12-23T13:06:29.172Z,96.60
2018-12-23T13:09:00.616Z,96.60
2018-12-23T13:11:30.583Z,96.60
2018-12-23T13:14:00.285Z,96.60
2018-12-23T13:16:29.851Z,96.60
2018-12-23T13:18:59.464Z,96.60
2018-12-23T13:21:28.956Z,96.60
2018-12-23T13:23:58.674Z,96.60
2018-12-23T13:26:27.967Z,96.60
2018-12-23T13:28:58.226Z,96.60
2018-12-23T13:31:28.726Z,96.60
2018-12-23T13:33:59.000Z,96.60
2018-12-23T13:36:30.705Z,96.60
2018-12-23T13:39:08.799Z,96.60
2018-12-23T13:42:22.630Z,96.60
2018-12-23T13:45:19.988Z,96.60
2018-12-23T13:49:03.042Z,96.60
2018-12-23T13:52:08.674Z,96.60
2018-12-23T13:55:30.130Z,96.60
2018-12-23T13:58:48.991Z,96.60
2018-12-23T14:02:00.678Z,96.60
2018-12-23T14:05:03.090Z,96.60
2018-12-23T14:07:51.293Z,96.60
2018-12-23T14:11:00.006Z,96.60
2018-12-23T14:13:31.722Z,96.60
2018-12-23T14:16:01.670Z,96.60
2018-12-23T14:18:34.454Z,96.60
2018-12-23T14:21:04.810Z,96.60
2018-12-23T14:23:34.880Z,96.60
2018-12-23T14:26:05.508Z,96.60
2018-12-23T14:28:35.939Z,96.60
2018-12-23T14:31:07.115Z,96.60
2018-12-23T14:33:37.750Z,96.60
2018-12-23T14:36:07.795Z,96.60
2018-12-23T14:38:39.569Z,96.60
2018-12-23T14:41:09.630Z,96.60
2018-12-23T14:43:40.786Z,96.60
2018-12-23T14:46:10.473Z,96.60
2018-12-23T14:48:42.420Z,96.60
2018-12-23T14:51:12.068Z,96.60
2018-12-23T14:53:41.873Z,96.60
2018-12-23T14:56:11.675Z,96.60
2018-12-23T14:58:42.123Z,96.60
2018-12-23T15:01:13.887Z,96.60
2018-12-23T15:03:43.914Z,96.60
2018-12-23T15:06:16.342Z,96.60
2018-12-23T15:08:45.853Z,96.60
2018-12-23T15:11:15.810Z,96.60
2018-12-23T15:13:45.398Z,96.60
2018-12-23T15:16:16.391Z,96.60
2018-12-23T15:18:46.932Z,96.60
2018-12-23T15:21:16.908Z,96.60
2018-12-23T15:23:46.636Z,96.60
2018-12-23T15:26:16.748Z,96.60
2018-12-23T15:28:46.821Z,96.60
2018-12-23T15:31:16.533Z,96.60
2018-12-23T15:33:50.507Z,96.60
2018-12-23T15:36:22.211Z,96.60
2018-12-23T15:38:52.101Z,96.60
2018-12-23T15:41:21.872Z,96.60
2018-12-23T15:43:51.392Z,96.60
2018-12-23T15:46:21.139Z,96.60
2018-12-23T15:48:50.478Z,96.60
2018-12-23T15:51:21.504Z,96.60
2018-12-23T15:53:51.543Z,96.60
2018-12-23T15:56:21.034Z,96.60
2018-12-23T15:58:50.706Z,96.60
2018-12-23T16:01:20.522Z,96.60
2018-12-23T16:03:52.513Z,96.60
2018-12-23T16:06:22.355Z,96.60
2018-12-23T16:08:54.665Z,96.60
2018-12-23T16:11:24.329Z,96.60
2018-12-23T16:13:54.289Z,96.60
2018-12-23T16:16:23.882Z,96.60
2018-12-23T16:18:53.538Z,96.60
2018-12-23T16:21:24.844Z,96.60
2018-12-23T16:23:54.698Z,96.60
2018-12-23T16:26:23.919Z,96.60
2018-12-23T16:28:54.940Z,96.60
2018-12-23T16:31:24.341Z,96.60
2018-12-23T16:33:53.973Z,96.60
2018-12-23T16:36:23.278Z,96.60
2018-12-23T16:38:53.439Z,96.60
2018-12-23T16:41:23.289Z,96.60
2018-12-23T16:43:55.773Z,96.60
2018-12-23T16:46:27.866Z,96.60
2018-12-23T16:48:58.987Z,96.60
2018-12-23T16:51:28.420Z,96.60
2018-12-23T16:53:57.889Z,96.60
2018-12-23T16:56:27.541Z,96.60
2018-12-23T16:58:57.241Z,96.60
2018-12-23T17:01:29.072Z,96.60
2018-12-23T17:03:58.830Z,96.60
2018-12-23T17:06:28.318Z,96.60
2018-12-23T17:08:58.013Z,96.60
2018-12-23T17:11:27.416Z,96.60
2018-12-23T17:13:56.788Z,96.60
2018-12-23T17:16:26.074Z,96.60
2018-12-23T17:18:55.422Z,96.60
2018-12-23T17:21:24.967Z,96.60
2018-12-23T17:23:54.522Z,96.60
2018-12-23T17:26:23.964Z,96.60
2018-12-23T17:28:53.515Z,96.60
2018-12-23T17:31:22.959Z,96.60
2018-12-23T17:33:52.738Z,96.60
2018-12-23T17:36:22.704Z,96.60
2018-12-23T17:38:51.888Z,96.60
2018-12-23T17:41:21.848Z,96.60
2018-12-23T17:43:51.324Z,96.60
2018-12-23T17:46:20.970Z,96.60
2018-12-23T17:48:50.640Z,96.60
2018-12-23T17:51:20.128Z,96.60
2018-12-23T17:53:49.675Z,96.60
2018-12-23T17:56:19.268Z,96.60
2018-12-23T17:58:48.809Z,96.60
2018-12-23T18:01:18.359Z,96.60
2018-12-23T18:03:48.138Z,96.60
2018-12-23T18:06:17.963Z,96.60
2018-12-23T18:08:47.491Z,96.60
2018-12-23T18:11:18.622Z,96.60
2018-12-23T18:13:50.335Z,96.60
2018-12-23T18:16:23.240Z,96.60
2018-12-23T18:18:52.653Z,96.60
2018-12-23T18:21:23.190Z,96.60
2018-12-23T18:23:52.741Z,96.60
2018-12-23T18:26:22.707Z,96.60
2018-12-23T18:28:52.600Z,96.60
2018-12-23T18:31:22.355Z,96.60
2018-12-23T18:33:52.191Z,96.60
2018-12-23T18:36:21.965Z,96.60
2018-12-23T18:38:51.196Z,96.60
2018-12-23T18:41:20.889Z,96.60
2018-12-23T18:43:50.836Z,96.60
2018-12-23T18:46:20.351Z,96.60
2018-12-23T18:48:52.881Z,96.60
2018-12-23T18:51:22.426Z,96.60
2018-12-23T18:53:52.223Z,96.60
2018-12-23T18:56:29.334Z,96.60
2018-12-23T18:58:59.159Z,96.60
2018-12-23T19:01:30.207Z,96.60
2018-12-23T19:04:00.199Z,96.60
2018-12-23T19:06:29.912Z,96.60
2018-12-23T19:09:27.363Z,96.60
2018-12-23T19:12:34.226Z,96.60
2018-12-23T19:15:33.310Z,96.60
2018-12-23T19:18:47.109Z,96.60
2018-12-23T19:21:40.386Z,96.60
2018-12-23T19:24:38.006Z,96.60
2018-12-23T19:28:03.814Z,96.60
2018-12-23T19:31:12.240Z,96.60
2018-12-23T19:34:33.948Z,96.60
2018-12-23T19:37:33.340Z,96.60
2018-12-23T19:40:31.727Z,96.60
2018-12-23T19:43:38.496Z,96.60
2018-12-23T19:46:53.771Z,96.60
2018-12-23T19:50:00.038Z,96.60
2018-12-23T19:53:05.459Z,96.60
2018-12-23T19:56:04.139Z,96.60
2018-12-23T19:58:57.529Z,96.60
2018-12-23T20:02:05.119Z,96.60
2018-12-23T20:05:12.765Z,96.60
2018-12-23T20:08:31.675Z,96.60
2018-12-23T20:11:40.748Z,96.60
2018-12-23T20:14:43.211Z,96.60
2018-12-23T20:17:57.569Z,96.60
2018-12-23T20:21:02.609Z,96.60
2018-12-23T20:24:02.294Z,96.60
2018-12-23T20:26:58.098Z,96.60
2018-12-23T20:30:01.518Z,96.60
2018-12-23T20:32:42.897Z,96.60
2018-12-23T20:35:36.271Z,96.60
2018-12-23T20:38:44.138Z,96.60
2018-12-23T20:41:58.286Z,96.60
2018-12-23T20:45:02.793Z,96.60
2018-12-23T20:48:10.477Z,96.60
2018-12-23T20:51:03.653Z,96.60
2018-12-23T20:53:56.660Z,96.60
2018-12-23T20:56:56.788Z,96.60
2018-12-23T21:00:22.181Z,96.60
2018-12-23T21:03:35.554Z,96.60
2018-12-23T21:06:50.001Z,96.60
2018-12-23T21:10:01.507Z,96.60
2018-12-23T21:12:56.506Z,96.60
2018-12-23T21:15:59.961Z,96.60
2018-12-23T21:19:14.611Z,96.60
2018-12-23T21:22:22.661Z,96.60
2018-12-23T21:25:19.383Z,96.60
2018-12-23T21:28:25.019Z,96.60
2018-12-23T21:31:38.483Z,96.60
2018-12-23T21:35:13.012Z,96.60
2018-12-23T21:38:29.251Z,96.60
2018-12-23T21:42:01.593Z,96.60
2018-12-23T21:45:14.255Z,96.60
2018-12-23T21:48:30.272Z,96.60
2018-12-23T21:51:35.880Z,96.60
2018-12-23T21:54:58.576Z,96.60
2018-12-23T21:58:00.868Z,96.60
2018-12-23T22:01:13.560Z,96.60
2018-12-23T22:04:24.648Z,96.60
2018-12-23T22:07:25.672Z,96.60
2018-12-23T22:10:51.092Z,96.60
2018-12-23T22:13:26.159Z,96.60
2018-12-23T22:15:56.617Z,96.60
2018-12-23T22:18:27.351Z,96.60
2018-12-23T22:20:57.191Z,96.60
2018-12-23T22:23:27.841Z,96.60
2018-12-23T22:26:01.380Z,96.60
2018-12-23T22:28:31.187Z,96.60
2018-12-23T22:31:00.929Z,96.60
2018-12-23T22:33:32.570Z,96.60
2018-12-23T22:36:03.245Z,96.60
2018-12-23T22:38:33.195Z,96.60
2018-12-23T22:41:10.822Z,96.60
2018-12-23T22:43:40.223Z,96.60
2018-12-23T22:46:09.729Z,96.60
2018-12-23T22:48:45.335Z,96.60
2018-12-23T22:51:15.416Z,96.60
2018-12-23T22:53:46.973Z,96.60
2018-12-23T22:56:16.714Z,96.50
2018-12-23T22:58:46.044Z,96.60
2018-12-23T23:01:15.653Z,96.60
2018-12-23T23:03:45.050Z,96.60
2018-12-23T23:06:14.750Z,96.60
2018-12-23T23:08:44.359Z,96.20
2018-12-23T23:11:14.003Z,96.20
2018-12-23T23:13:44.977Z,96.00
2018-12-23T23:16:14.630Z,95.90
2018-12-23T23:18:44.415Z,96.20
2018-12-23T23:21:13.911Z,95.90
2018-12-23T23:23:43.868Z,95.80
2018-12-23T23:26:13.696Z,96.10
2018-12-23T23:28:43.004Z,96.10
2018-12-23T23:31:12.804Z,96.10
2018-12-23T23:33:42.418Z,96.60
2018-12-23T23:36:11.918Z,96.20
2018-12-23T23:38:41.400Z,96.20
2018-12-23T23:41:11.203Z,96.00
2018-12-23T23:43:40.632Z,96.00
2018-12-23T23:46:10.256Z,95.70
2018-12-23T23:48:39.944Z,96.00
2018-12-23T23:51:09.600Z,95.60
2018-12-23T23:53:39.208Z,96.20
2018-12-23T23:56:08.427Z,96.60
2018-12-23T23:58:38.139Z,96.60
